sensor_id;sensor_type;location;lat;lon;timestamp;pressure;altitude;pressure_sealevel;temperature;humidity
54407;BME280;40313;50.308;30.374;2023-02-04T00:01:13;99214.44;;;-6.83;100.00
54407;BME280;40313;50.308;30.374;2023-02-04T00:03:40;99220.41;;;-6.74;100.00
54407;BME280;40313;50.308;30.374;2023-02-04T00:06:07;99223.84;;;-6.68;100.00
54407;BME280;40313;50.308;30.374;2023-02-04T00:08:33;99212.03;;;-6.63;100.00
54407;BME280;40313;50.308;30.374;2023-02-04T00:11:01;99222.22;;;-6.56;100.00
54407;BME280;40313;50.308;30.374;2023-02-04T00:13:29;99215.50;;;-6.51;100.00
54407;BME280;40313;50.308;30.374;2023-02-04T00:15:56;99215.50;;;-6.50;100.00
54407;BME280;40313;50.308;30.374;2023-02-04T00:18:23;99217.16;;;-6.49;100.00
54407;BME280;40313;50.308;30.374;2023-02-04T00:20:49;99218.88;;;-6.46;100.00
54407;BME280;40313;50.308;30.374;2023-02-04T00:23:16;99218.94;;;-6.41;100.00
54407;BME280;40313;50.308;30.374;2023-02-04T00:25:42;99214.72;;;-6.36;100.00
54407;BME280;40313;50.308;30.374;2023-02-04T00:28:09;99216.44;;;-6.32;100.00
54407;BME280;40313;50.308;30.374;2023-02-04T00:30:36;99213.91;;;-6.23;100.00
54407;BME280;40313;50.308;30.374;2023-02-04T00:33:03;99206.34;;;-6.17;100.00
54407;BME280;40313;50.308;30.374;2023-02-04T00:35:29;99210.59;;;-6.13;100.00
54407;BME280;40313;50.308;30.374;2023-02-04T00:37:56;99214.00;;;-6.06;100.00
54407;BME280;40313;50.308;30.374;2023-02-04T00:40:23;99212.34;;;-6.01;100.00
54407;BME280;40313;50.308;30.374;2023-02-04T00:42:49;99217.41;;;-5.95;100.00
54407;BME280;40313;50.308;30.374;2023-02-04T00:45:16;99216.56;;;-5.89;100.00
54407;BME280;40313;50.308;30.374;2023-02-04T00:47:44;99209.81;;;-5.84;100.00
54407;BME280;40313;50.308;30.374;2023-02-04T00:50:10;99214.06;;;-5.78;100.00
54407;BME280;40313;50.308;30.374;2023-02-04T00:52:37;99203.91;;;-5.70;100.00
54407;BME280;40313;50.308;30.374;2023-02-04T00:55:04;99203.97;;;-5.64;100.00
54407;BME280;40313;50.308;30.374;2023-02-04T00:57:32;99202.25;;;-5.58;100.00
54407;BME280;40313;50.308;30.374;2023-02-04T00:59:58;99202.28;;;-5.51;100.00
54407;BME280;40313;50.308;30.374;2023-02-04T01:02:25;99213.28;;;-5.48;100.00
54407;BME280;40313;50.308;30.374;2023-02-04T01:04:53;99210.75;;;-5.43;100.00
54407;BME280;40313;50.308;30.374;2023-02-04T01:07:19;99214.16;;;-5.40;100.00
54407;BME280;40313;50.308;30.374;2023-02-04T01:09:46;99208.22;;;-5.35;100.00
54407;BME280;40313;50.308;30.374;2023-02-04T01:12:12;99213.31;;;-5.31;100.00
54407;BME280;40313;50.308;30.374;2023-02-04T01:14:39;99216.72;;;-5.27;100.00
54407;BME280;40313;50.308;30.374;2023-02-04T01:17:05;99217.56;;;-5.24;100.00
54407;BME280;40313;50.308;30.374;2023-02-04T01:19:32;99210.78;;;-5.18;100.00
54407;BME280;40313;50.308;30.374;2023-02-04T01:22:00;99209.94;;;-5.13;100.00
54407;BME280;40313;50.308;30.374;2023-02-04T01:24:26;99215.88;;;-5.08;100.00
54407;BME280;40313;50.308;30.374;2023-02-04T01:26:53;99203.16;;;-5.05;100.00
54407;BME280;40313;50.308;30.374;2023-02-04T01:29:19;99205.72;;;-5.01;100.00
54407;BME280;40313;50.308;30.374;2023-02-04T01:31:46;99204.84;;;-4.99;100.00
54407;BME280;40313;50.308;30.374;2023-02-04T01:34:12;99198.91;;;-4.95;100.00
54407;BME280;40313;50.308;30.374;2023-02-04T01:36:38;99194.69;;;-4.91;100.00
54407;BME280;40313;50.308;30.374;2023-02-04T01:39:06;99202.28;;;-4.87;100.00
54407;BME280;40313;50.308;30.374;2023-02-04T01:41:32;99202.28;;;-4.83;100.00
54407;BME280;40313;50.308;30.374;2023-02-04T01:43:59;99202.28;;;-4.80;100.00
54407;BME280;40313;50.308;30.374;2023-02-04T01:46:25;99199.72;;;-4.79;100.00
54407;BME280;40313;50.308;30.374;2023-02-04T01:48:52;99188.72;;;-4.76;100.00
54407;BME280;40313;50.308;30.374;2023-02-04T01:51:19;99200.59;;;-4.74;100.00
54407;BME280;40313;50.308;30.374;2023-02-04T01:53:51;99194.66;;;-4.70;100.00
54407;BME280;40313;50.308;30.374;2023-02-04T01:56:20;99192.94;;;-4.68;100.00
54407;BME280;40313;50.308;30.374;2023-02-04T01:58:47;99192.91;;;-4.64;100.00
54407;BME280;40313;50.308;30.374;2023-02-04T02:01:31;99192.94;;;-4.61;100.00
54407;BME280;40313;50.308;30.374;2023-02-04T02:03:58;99192.06;;;-4.59;100.00
54407;BME280;40313;50.308;30.374;2023-02-04T02:06:25;99187.81;;;-4.55;100.00
54407;BME280;40313;50.308;30.374;2023-02-04T02:08:52;99187.81;;;-4.54;100.00
54407;BME280;40313;50.308;30.374;2023-02-04T02:11:19;99189.53;;;-4.51;100.00
54407;BME280;40313;50.308;30.374;2023-02-04T02:13:46;99186.13;;;-4.48;100.00
54407;BME280;40313;50.308;30.374;2023-02-04T02:16:12;99189.50;;;-4.46;100.00
54407;BME280;40313;50.308;30.374;2023-02-04T02:18:39;99190.34;;;-4.44;100.00
54407;BME280;40313;50.308;30.374;2023-02-04T02:21:05;99193.72;;;-4.42;100.00
54407;BME280;40313;50.308;30.374;2023-02-04T02:23:45;99202.19;;;-4.40;100.00
54407;BME280;40313;50.308;30.374;2023-02-04T02:26:12;99191.16;;;-4.38;100.00
54407;BME280;40313;50.308;30.374;2023-02-04T02:28:38;99190.31;;;-4.37;100.00
54407;BME280;40313;50.308;30.374;2023-02-04T02:31:05;99192.84;;;-4.34;100.00
54407;BME280;40313;50.308;30.374;2023-02-04T02:33:32;99184.38;;;-4.32;100.00
54407;BME280;40313;50.308;30.374;2023-02-04T02:35:59;99187.75;;;-4.30;100.00
54407;BME280;40313;50.308;30.374;2023-02-04T02:38:25;99187.75;;;-4.29;100.00
54407;BME280;40313;50.308;30.374;2023-02-04T02:40:53;99192.00;;;-4.28;100.00
54407;BME280;40313;50.308;30.374;2023-02-04T02:43:20;99188.59;;;-4.27;100.00
54407;BME280;40313;50.308;30.374;2023-02-04T02:45:47;99188.59;;;-4.25;100.00
54407;BME280;40313;50.308;30.374;2023-02-04T02:48:15;99188.59;;;-4.25;100.00
54407;BME280;40313;50.308;30.374;2023-02-04T02:50:41;99194.50;;;-4.23;100.00
54407;BME280;40313;50.308;30.374;2023-02-04T02:53:09;99191.13;;;-4.22;100.00
54407;BME280;40313;50.308;30.374;2023-02-04T02:55:36;99191.13;;;-4.21;100.00
54407;BME280;40313;50.308;30.374;2023-02-04T02:58:03;99191.97;;;-4.19;100.00
54407;BME280;40313;50.308;30.374;2023-02-04T03:00:30;99185.16;;;-4.17;100.00
54407;BME280;40313;50.308;30.374;2023-02-04T03:02:57;99192.78;;;-4.15;100.00
54407;BME280;40313;50.308;30.374;2023-02-04T03:05:26;99196.16;;;-4.13;100.00
54407;BME280;40313;50.308;30.374;2023-02-04T03:07:54;99205.50;;;-4.09;100.00
54407;BME280;40313;50.308;30.374;2023-02-04T03:10:20;99198.72;;;-4.08;100.00
54407;BME280;40313;50.308;30.374;2023-02-04T03:12:47;99204.66;;;-4.08;100.00
54407;BME280;40313;50.308;30.374;2023-02-04T03:15:15;99197.88;;;-4.06;100.00
54407;BME280;40313;50.308;30.374;2023-02-04T03:17:42;99199.53;;;-4.05;100.00
54407;BME280;40313;50.308;30.374;2023-02-04T03:20:10;99204.63;;;-4.03;100.00
54407;BME280;40313;50.308;30.374;2023-02-04T03:22:37;99202.06;;;-4.03;100.00
54407;BME280;40313;50.308;30.374;2023-02-04T03:25:04;99198.66;;;-4.01;100.00
54407;BME280;40313;50.308;30.374;2023-02-04T03:27:31;99197.84;;;-4.00;100.00
54407;BME280;40313;50.308;30.374;2023-02-04T03:29:58;99193.56;;;-3.99;100.00
54407;BME280;40313;50.308;30.374;2023-02-04T03:32:26;99204.63;;;-3.98;100.00
54407;BME280;40313;50.308;30.374;2023-02-04T03:34:52;99200.38;;;-3.98;100.00
54407;BME280;40313;50.308;30.374;2023-02-04T03:37:18;99204.59;;;-3.95;100.00
54407;BME280;40313;50.308;30.374;2023-02-04T03:39:45;99204.59;;;-3.95;100.00
54407;BME280;40313;50.308;30.374;2023-02-04T03:42:11;99196.09;;;-3.97;100.00
54407;BME280;40313;50.308;30.374;2023-02-04T03:44:38;99204.59;;;-3.92;100.00
54407;BME280;40313;50.308;30.374;2023-02-04T03:47:04;99201.19;;;-3.91;100.00
54407;BME280;40313;50.308;30.374;2023-02-04T03:49:32;99213.06;;;-3.90;100.00
54407;BME280;40313;50.308;30.374;2023-02-04T03:52:00;99211.38;;;-3.88;100.00
54407;BME280;40313;50.308;30.374;2023-02-04T03:54:26;99210.50;;;-3.89;100.00
54407;BME280;40313;50.308;30.374;2023-02-04T03:56:53;99209.66;;;-3.86;100.00
54407;BME280;40313;50.308;30.374;2023-02-04T03:59:19;99202.88;;;-3.87;100.00
54407;BME280;40313;50.308;30.374;2023-02-04T04:01:46;99202.88;;;-3.87;100.00
54407;BME280;40313;50.308;30.374;2023-02-04T04:04:12;99196.91;;;-3.88;100.00
54407;BME280;40313;50.308;30.374;2023-02-04T04:06:40;99198.63;;;-3.88;100.00
54407;BME280;40313;50.308;30.374;2023-02-04T04:09:07;99206.28;;;-3.88;100.00
54407;BME280;40313;50.308;30.374;2023-02-04T04:11:33;99203.72;;;-3.88;100.00
54407;BME280;40313;50.308;30.374;2023-02-04T04:13:59;99213.91;;;-3.87;100.00
54407;BME280;40313;50.308;30.374;2023-02-04T04:16:26;99208.81;;;-3.88;100.00
54407;BME280;40313;50.308;30.374;2023-02-04T04:18:52;99211.38;;;-3.90;100.00
54407;BME280;40313;50.308;30.374;2023-02-04T04:21:18;99206.28;;;-3.88;100.00
54407;BME280;40313;50.308;30.374;2023-02-04T04:23:46;99218.16;;;-3.87;100.00
54407;BME280;40313;50.308;30.374;2023-02-04T04:26:12;99215.59;;;-3.86;100.00
54407;BME280;40313;50.308;30.374;2023-02-04T04:28:39;99216.44;;;-3.85;100.00
54407;BME280;40313;50.308;30.374;2023-02-04T04:31:05;99215.59;;;-3.86;100.00
54407;BME280;40313;50.308;30.374;2023-02-04T04:33:31;99213.06;;;-3.87;100.00
54407;BME280;40313;50.308;30.374;2023-02-04T04:35:58;99222.38;;;-3.86;100.00
54407;BME280;40313;50.308;30.374;2023-02-04T04:38:24;99223.25;;;-3.87;100.00
54407;BME280;40313;50.308;30.374;2023-02-04T04:40:52;99232.59;;;-3.86;100.00
54407;BME280;40313;50.308;30.374;2023-02-04T04:43:18;99231.75;;;-3.85;100.00
54407;BME280;40313;50.308;30.374;2023-02-04T04:45:45;99230.91;;;-3.86;100.00
54407;BME280;40313;50.308;30.374;2023-02-04T04:48:11;99237.66;;;-3.85;100.00
54407;BME280;40313;50.308;30.374;2023-02-04T04:50:37;99230.00;;;-3.83;100.00
54407;BME280;40313;50.308;30.374;2023-02-04T04:53:04;99240.22;;;-3.83;100.00
54407;BME280;40313;50.308;30.374;2023-02-04T04:55:35;99243.63;;;-3.84;100.00
54407;BME280;40313;50.308;30.374;2023-02-04T04:58:02;99245.28;;;-3.82;100.00
54407;BME280;40313;50.308;30.374;2023-02-04T05:00:29;99238.50;;;-3.81;100.00
54407;BME280;40313;50.308;30.374;2023-02-04T05:02:55;99248.72;;;-3.81;100.00
54407;BME280;40313;50.308;30.374;2023-02-04T05:05:21;99249.53;;;-3.79;100.00
54407;BME280;40313;50.308;30.374;2023-02-04T05:07:48;99255.47;;;-3.74;100.00
54407;BME280;40313;50.308;30.374;2023-02-04T05:10:14;99260.56;;;-3.71;100.00
54407;BME280;40313;50.308;30.374;2023-02-04T05:12:40;99260.53;;;-3.69;100.00
54407;BME280;40313;50.308;30.374;2023-02-04T05:15:09;99266.50;;;-3.67;100.00
54407;BME280;40313;50.308;30.374;2023-02-04T05:17:35;99274.16;;;-3.67;100.00
54407;BME280;40313;50.308;30.374;2023-02-04T05:20:01;99276.69;;;-3.67;100.00
54407;BME280;40313;50.308;30.374;2023-02-04T05:22:28;99274.13;;;-3.69;100.00
54407;BME280;40313;50.308;30.374;2023-02-04T05:24:54;99282.63;;;-3.63;100.00
54407;BME280;40313;50.308;30.374;2023-02-04T05:27:20;99275.81;;;-3.65;100.00
54407;BME280;40313;50.308;30.374;2023-02-04T05:29:47;99286.88;;;-3.62;100.00
54407;BME280;40313;50.308;30.374;2023-02-04T05:32:15;99282.63;;;-3.63;100.00
54407;BME280;40313;50.308;30.374;2023-02-04T05:34:41;99285.13;;;-3.59;100.00
54407;BME280;40313;50.308;30.374;2023-02-04T05:37:07;99287.69;;;-3.57;100.00
54407;BME280;40313;50.308;30.374;2023-02-04T05:39:34;99285.13;;;-3.59;100.00
54407;BME280;40313;50.308;30.374;2023-02-04T05:42:00;99292.78;;;-3.60;100.00
54407;BME280;40313;50.308;30.374;2023-02-04T05:44:26;99287.69;;;-3.57;100.00
54407;BME280;40313;50.308;30.374;2023-02-04T05:46:53;99291.09;;;-3.58;100.00
54407;BME280;40313;50.308;30.374;2023-02-04T05:49:20;99296.19;;;-3.55;100.00
54407;BME280;40313;50.308;30.374;2023-02-04T05:51:47;99293.63;;;-3.54;100.00
54407;BME280;40313;50.308;30.374;2023-02-04T05:54:14;99311.47;;;-3.52;100.00
54407;BME280;40313;50.308;30.374;2023-02-04T05:56:43;99309.75;;;-3.50;100.00
54407;BME280;40313;50.308;30.374;2023-02-04T05:59:09;99320.78;;;-3.47;100.00
54407;BME280;40313;50.308;30.374;2023-02-04T06:01:36;99319.06;;;-3.44;100.00
54407;BME280;40313;50.308;30.374;2023-02-04T06:04:02;99327.59;;;-3.45;100.00
54407;BME280;40313;50.308;30.374;2023-02-04T06:06:30;99325.88;;;-3.43;100.00
54407;BME280;40313;50.308;30.374;2023-02-04T06:08:56;99328.41;;;-3.40;100.00
54407;BME280;40313;50.308;30.374;2023-02-04T06:11:23;99330.09;;;-3.36;100.00
54407;BME280;40313;50.308;30.374;2023-02-04T06:13:49;99320.75;;;-3.36;100.00
54407;BME280;40313;50.308;30.374;2023-02-04T06:16:15;99341.16;;;-3.34;100.00
54407;BME280;40313;50.308;30.374;2023-02-04T06:18:42;99331.78;;;-3.34;100.00
54407;BME280;40313;50.308;30.374;2023-02-04T06:21:08;99335.16;;;-3.32;100.00
54407;BME280;40313;50.308;30.374;2023-02-04T06:23:36;99340.28;;;-3.28;100.00
54407;BME280;40313;50.308;30.374;2023-02-04T06:26:02;99340.25;;;-3.25;100.00
54407;BME280;40313;50.308;30.374;2023-02-04T06:28:28;99341.06;;;-3.20;100.00
54407;BME280;40313;50.308;30.374;2023-02-04T06:30:55;99340.16;;;-3.13;100.00
54407;BME280;40313;50.308;30.374;2023-02-04T06:33:21;99352.06;;;-3.09;100.00
54407;BME280;40313;50.308;30.374;2023-02-04T06:35:48;99343.53;;;-3.08;100.00
54407;BME280;40313;50.308;30.374;2023-02-04T06:38:15;99346.94;;;-3.06;100.00
54407;BME280;40313;50.308;30.374;2023-02-04T06:40:43;99351.19;;;-3.06;100.00
54407;BME280;40313;50.308;30.374;2023-02-04T06:43:13;99350.31;;;-3.01;100.00
54407;BME280;40313;50.308;30.374;2023-02-04T06:45:40;99354.56;;;-3.00;100.00
54407;BME280;40313;50.308;30.374;2023-02-04T06:48:06;99357.09;;;-2.97;100.00
54407;BME280;40313;50.308;30.374;2023-02-04T06:50:33;99356.25;;;-2.96;100.00
54407;BME280;40313;50.308;30.374;2023-02-04T06:52:59;99360.47;;;-2.91;100.00
54407;BME280;40313;50.308;30.374;2023-02-04T06:55:26;99360.47;;;-2.88;100.00
54407;BME280;40313;50.308;30.374;2023-02-04T06:57:54;99362.13;;;-2.87;100.00
54407;BME280;40313;50.308;30.374;2023-02-04T07:00:20;99357.88;;;-2.84;100.00
54407;BME280;40313;50.308;30.374;2023-02-04T07:02:47;99370.59;;;-2.79;100.00
54407;BME280;40313;50.308;30.374;2023-02-04T07:05:14;99368.84;;;-2.71;100.00
54407;BME280;40313;50.308;30.374;2023-02-04T07:07:40;99370.53;;;-2.67;100.00
54407;BME280;40313;50.308;30.374;2023-02-04T07:10:07;99372.19;;;-2.59;100.00
54407;BME280;40313;50.308;30.374;2023-02-04T07:12:34;99372.19;;;-2.63;100.00
54407;BME280;40313;50.308;30.374;2023-02-04T07:15:02;99377.19;;;-2.50;100.00
54407;BME280;40313;50.308;30.374;2023-02-04T07:17:28;99375.50;;;-2.48;100.00
54407;BME280;40313;50.308;30.374;2023-02-04T07:19:54;99370.34;;;-2.42;100.00
54407;BME280;40313;50.308;30.374;2023-02-04T07:22:21;99374.56;;;-2.36;100.00
54407;BME280;40313;50.308;30.374;2023-02-04T07:24:47;99379.59;;;-2.30;100.00
54407;BME280;40313;50.308;30.374;2023-02-04T07:27:14;99384.69;;;-2.24;100.00
54407;BME280;40313;50.308;30.374;2023-02-04T07:29:40;99382.19;;;-2.35;100.00
54407;BME280;40313;50.308;30.374;2023-02-04T07:32:08;99385.59;;;-2.33;100.00
54407;BME280;40313;50.308;30.374;2023-02-04T07:34:35;99386.47;;;-2.34;100.00
54407;BME280;40313;50.308;30.374;2023-02-04T07:37:01;99378.72;;;-2.28;100.00
54407;BME280;40313;50.308;30.374;2023-02-04T07:39:28;99375.25;;;-2.16;100.00
54407;BME280;40313;50.308;30.374;2023-02-04T07:41:54;99379.53;;;-2.19;100.00
54407;BME280;40313;50.308;30.374;2023-02-04T07:44:21;99382.91;;;-2.19;100.00
54407;BME280;40313;50.308;30.374;2023-02-04T07:46:47;99392.25;;;-2.13;100.00
54407;BME280;40313;50.308;30.374;2023-02-04T07:49:15;99388.81;;;-2.11;100.00
54407;BME280;40313;50.308;30.374;2023-02-04T07:51:42;99388.75;;;-2.06;100.00
54407;BME280;40313;50.308;30.374;2023-02-04T07:54:08;99400.94;;;-2.33;100.00
54407;BME280;40313;50.308;30.374;2023-02-04T07:56:35;99388.94;;;-2.28;100.00
54407;BME280;40313;50.308;30.374;2023-02-04T07:59:02;99397.44;;;-2.22;100.00
54407;BME280;40313;50.308;30.374;2023-02-04T08:01:28;99398.41;;;-2.40;100.00
54407;BME280;40313;50.308;30.374;2023-02-04T08:03:54;99404.34;;;-2.34;100.00
54407;BME280;40313;50.308;30.374;2023-02-04T08:06:22;99406.03;;;-2.36;100.00
54407;BME280;40313;50.308;30.374;2023-02-04T08:08:48;99403.47;;;-2.31;100.00
54407;BME280;40313;50.308;30.374;2023-02-04T08:11:15;99405.22;;;-2.39;100.00
54407;BME280;40313;50.308;30.374;2023-02-04T08:13:41;99406.94;;;-2.38;100.00
54407;BME280;40313;50.308;30.374;2023-02-04T08:16:07;99400.94;;;-2.33;100.00
54407;BME280;40313;50.308;30.374;2023-02-04T08:18:34;99406.03;;;-2.36;100.00
54407;BME280;40313;50.308;30.374;2023-02-04T08:21:00;99415.38;;;-2.30;100.00
54407;BME280;40313;50.308;30.374;2023-02-04T08:23:30;99411.97;;;-2.29;100.00
54407;BME280;40313;50.308;30.374;2023-02-04T08:25:57;99419.63;;;-2.28;100.00
54407;BME280;40313;50.308;30.374;2023-02-04T08:28:23;99421.25;;;-2.20;100.00
54407;BME280;40313;50.308;30.374;2023-02-04T08:30:50;99424.63;;;-2.14;100.00
54407;BME280;40313;50.308;30.374;2023-02-04T08:33:16;99419.56;;;-2.20;100.00
54407;BME280;40313;50.308;30.374;2023-02-04T08:35:42;99421.16;;;-2.06;100.00
54407;BME280;40313;50.308;30.374;2023-02-04T08:38:09;99421.06;;;-1.97;100.00
54407;BME280;40313;50.308;30.374;2023-02-04T08:40:36;99421.97;;;-2.00;100.00
54407;BME280;40313;50.308;30.374;2023-02-04T08:43:03;99423.66;;;-2.02;100.00
54407;BME280;40313;50.308;30.374;2023-02-04T08:45:29;99428.72;;;-1.97;100.00
54407;BME280;40313;50.308;30.374;2023-02-04T08:47:56;99436.41;;;-1.96;100.00
54407;BME280;40313;50.308;30.374;2023-02-04T08:50:23;99437.31;;;-2.01;100.00
54407;BME280;40313;50.308;30.374;2023-02-04T08:52:49;99436.44;;;-2.00;100.00
54407;BME280;40313;50.308;30.374;2023-02-04T08:55:16;99435.50;;;-1.92;100.00
54407;BME280;40313;50.308;30.374;2023-02-04T08:57:44;99437.22;;;-1.94;100.00
54407;BME280;40313;50.308;30.374;2023-02-04T09:00:11;99440.63;;;-1.92;100.00
54407;BME280;40313;50.308;30.374;2023-02-04T09:02:38;99432.94;;;-1.92;100.00
54407;BME280;40313;50.308;30.374;2023-02-04T09:05:04;99434.75;;;-2.00;100.00
54407;BME280;40313;50.308;30.374;2023-02-04T09:07:31;99426.16;;;-1.94;100.00
54407;BME280;40313;50.308;30.374;2023-02-04T09:09:57;99436.41;;;-1.99;100.00
54407;BME280;40313;50.308;30.374;2023-02-04T09:12:23;99432.19;;;-2.00;100.00
54407;BME280;40313;50.308;30.374;2023-02-04T09:14:51;99444.00;;;-1.88;100.00
54407;BME280;40313;50.308;30.374;2023-02-04T09:17:17;99439.69;;;-1.81;100.00
54407;BME280;40313;50.308;30.374;2023-02-04T09:19:44;99435.38;;;-1.78;100.00
54407;BME280;40313;50.308;30.374;2023-02-04T09:22:10;99438.06;;;-1.93;100.00
54407;BME280;40313;50.308;30.374;2023-02-04T09:24:39;99441.38;;;-1.77;100.00
54407;BME280;40313;50.308;30.374;2023-02-04T09:27:05;99438.75;;;-1.71;100.00
54407;BME280;40313;50.308;30.374;2023-02-04T09:29:32;99434.41;;;-1.66;100.00
54407;BME280;40313;50.308;30.374;2023-02-04T09:31:59;99436.97;;;-1.67;100.00
54407;BME280;40313;50.308;30.374;2023-02-04T09:34:26;99437.06;;;-1.75;100.00
54407;BME280;40313;50.308;30.374;2023-02-04T09:36:52;99431.94;;;-1.74;100.00
54407;BME280;40313;50.308;30.374;2023-02-04T09:39:18;99434.59;;;-1.83;100.00
54407;BME280;40313;50.308;30.374;2023-02-04T09:41:45;99443.00;;;-1.73;100.00
54407;BME280;40313;50.308;30.374;2023-02-04T09:44:13;99443.75;;;-1.63;100.00
54407;BME280;40313;50.308;30.374;2023-02-04T09:46:40;99439.41;;;-1.53;100.00
54407;BME280;40313;50.308;30.374;2023-02-04T09:49:11;99439.63;;;-1.75;100.00
54407;BME280;40313;50.308;30.374;2023-02-04T09:51:37;99437.06;;;-1.74;100.00
54407;BME280;40313;50.308;30.374;2023-02-04T09:54:04;99448.16;;;-1.76;100.00
54407;BME280;40313;50.308;30.374;2023-02-04T09:56:32;99445.56;;;-1.75;100.00
54407;BME280;40313;50.308;30.374;2023-02-04T09:58:58;99448.13;;;-1.73;100.00
54407;BME280;40313;50.308;30.374;2023-02-04T10:01:25;99451.53;;;-1.71;100.00
54407;BME280;40313;50.308;30.374;2023-02-04T10:03:52;99451.72;;;-1.93;100.00
54407;BME280;40313;50.308;30.374;2023-02-04T10:06:22;99450.06;;;-2.00;100.00
54407;BME280;40313;50.308;30.374;2023-02-04T10:08:49;99451.03;;;-2.16;100.00
54407;BME280;40313;50.308;30.374;2023-02-04T10:11:16;99448.53;;;-2.19;100.00
54407;BME280;40313;50.308;30.374;2023-02-04T10:13:44;99453.56;;;-2.13;100.00
54407;BME280;40313;50.308;30.374;2023-02-04T10:16:12;99455.31;;;-2.15;100.00
54407;BME280;40313;50.308;30.374;2023-02-04T10:18:39;99451.91;;;-2.19;100.00
54407;BME280;40313;50.308;30.374;2023-02-04T10:21:10;99459.72;;;-2.34;100.00
54407;BME280;40313;50.308;30.374;2023-02-04T10:23:39;99474.19;;;-2.38;100.00
54407;BME280;40313;50.308;30.374;2023-02-04T10:26:08;99474.19;;;-2.38;100.00
54407;BME280;40313;50.308;30.374;2023-02-04T10:28:35;99478.47;;;-2.38;100.00
54407;BME280;40313;50.308;30.374;2023-02-04T10:31:04;99486.06;;;-2.29;100.00
54407;BME280;40313;50.308;30.374;2023-02-04T10:33:32;99493.75;;;-2.34;100.00
54407;BME280;40313;50.308;30.374;2023-02-04T10:36:01;99503.03;;;-2.20;100.00
54407;BME280;40313;50.308;30.374;2023-02-04T10:38:29;99499.69;;;-2.33;100.00
54407;BME280;40313;50.308;30.374;2023-02-04T10:41:00;99496.31;;;-2.35;100.00
54407;BME280;40313;50.308;30.374;2023-02-04T10:43:27;99502.25;;;-2.27;100.00
54407;BME280;40313;50.308;30.374;2023-02-04T10:45:54;99495.41;;;-2.25;100.00
54407;BME280;40313;50.308;30.374;2023-02-04T10:48:21;99504.75;;;-2.22;100.00
54407;BME280;40313;50.308;30.374;2023-02-04T10:50:47;99514.09;;;-2.18;100.00
54407;BME280;40313;50.308;30.374;2023-02-04T10:53:14;99508.13;;;-2.17;100.00
54407;BME280;40313;50.308;30.374;2023-02-04T10:55:58;99513.22;;;-2.17;100.00
54407;BME280;40313;50.308;30.374;2023-02-04T10:58:27;99525.16;;;-2.16;100.00
54407;BME280;40313;50.308;30.374;2023-02-04T11:00:53;99527.72;;;-2.16;100.00
54407;BME280;40313;50.308;30.374;2023-02-04T11:03:21;99530.25;;;-2.16;100.00
54407;BME280;40313;50.308;30.374;2023-02-04T11:05:48;99536.25;;;-2.20;100.00
54407;BME280;40313;50.308;30.374;2023-02-04T11:08:19;99546.53;;;-2.30;100.00
54407;BME280;40313;50.308;30.374;2023-02-04T11:10:48;99548.25;;;-2.35;100.00
54407;BME280;40313;50.308;30.374;2023-02-04T11:13:20;99544.03;;;-2.42;100.00
54407;BME280;40313;50.308;30.374;2023-02-04T11:15:48;99543.28;;;-2.59;100.00
54407;BME280;40313;50.308;30.374;2023-02-04T11:18:24;99555.19;;;-2.55;100.00
54407;BME280;40313;50.308;30.374;2023-02-04T11:20:52;99557.69;;;-2.46;100.00
54407;BME280;40313;50.308;30.374;2023-02-04T11:23:30;99560.28;;;-2.57;100.00
54407;BME280;40313;50.308;30.374;2023-02-04T11:26:04;99564.53;;;-2.57;100.00
54407;BME280;40313;50.308;30.374;2023-02-04T11:28:37;99559.34;;;-2.40;100.00
54407;BME280;40313;50.308;30.374;2023-02-04T11:31:13;99562.81;;;-2.52;100.00
54407;BME280;40313;50.308;30.374;2023-02-04T11:34:01;99561.09;;;-2.50;100.00
54407;BME280;40313;50.308;30.374;2023-02-04T11:36:27;99560.28;;;-2.55;100.00
54407;BME280;40313;50.308;30.374;2023-02-04T11:38:54;99562.84;;;-2.54;100.00
54407;BME280;40313;50.308;30.374;2023-02-04T11:41:22;99561.97;;;-2.56;100.00
54407;BME280;40313;50.308;30.374;2023-02-04T11:43:49;99558.59;;;-2.58;100.00
54407;BME280;40313;50.308;30.374;2023-02-04T11:46:17;99561.13;;;-2.56;100.00
54407;BME280;40313;50.308;30.374;2023-02-04T11:48:44;99577.28;;;-2.47;100.00
54407;BME280;40313;50.308;30.374;2023-02-04T11:51:11;99573.91;;;-2.59;100.00
54407;BME280;40313;50.308;30.374;2023-02-04T11:53:39;99577.28;;;-2.48;100.00
54407;BME280;40313;50.308;30.374;2023-02-04T11:56:05;99580.66;;;-2.38;100.00
54407;BME280;40313;50.308;30.374;2023-02-04T11:58:32;99581.50;;;-2.39;100.00
54407;BME280;40313;50.308;30.374;2023-02-04T12:00:58;99590.84;;;-2.35;100.00
54407;BME280;40313;50.308;30.374;2023-02-04T12:03:27;99593.34;;;-2.26;100.00
54407;BME280;40313;50.308;30.374;2023-02-04T12:05:54;99585.66;;;-2.24;100.00
54407;BME280;40313;50.308;30.374;2023-02-04T12:08:25;99593.38;;;-2.31;100.00
54407;BME280;40313;50.308;30.374;2023-02-04T12:10:58;99593.34;;;-2.24;100.00
54407;BME280;40313;50.308;30.374;2023-02-04T12:13:25;99589.94;;;-2.27;100.00
54407;BME280;40313;50.308;30.374;2023-02-04T12:15:53;99592.47;;;-2.20;100.00
54407;BME280;40313;50.308;30.374;2023-02-04T12:18:20;99597.59;;;-2.22;100.00
54407;BME280;40313;50.308;30.374;2023-02-04T12:20:48;99599.34;;;-2.32;100.00
54407;BME280;40313;50.308;30.374;2023-02-04T12:23:14;99599.31;;;-2.24;100.00
54407;BME280;40313;50.308;30.374;2023-02-04T12:25:41;99600.13;;;-2.17;100.00
54407;BME280;40313;50.308;30.374;2023-02-04T12:28:07;99603.56;;;-2.24;100.00
54407;BME280;40313;50.308;30.374;2023-02-04T12:30:33;99597.59;;;-2.16;100.00
54407;BME280;40313;50.308;30.374;2023-02-04T12:33:00;99602.69;;;-2.16;100.00
54407;BME280;40313;50.308;30.374;2023-02-04T12:35:26;99603.50;;;-2.09;100.00
54407;BME280;40313;50.308;30.374;2023-02-04T12:37:54;99600.03;;;-2.02;100.00
54407;BME280;40313;50.308;30.374;2023-02-04T12:40:20;99604.28;;;-1.98;100.00